createdAt,value
2023-05-04T00:01:47.942Z,101303.25
2023-05-04T00:04:14.533Z,101302.52
2023-05-04T00:06:41.069Z,101304.21
2023-05-04T00:09:07.617Z,101301.64
2023-05-04T00:11:33.938Z,101303.53
2023-05-04T00:14:00.399Z,101299.27
2023-05-04T00:16:27.151Z,101296.55
2023-05-04T00:18:53.630Z,101296.64
2023-05-04T00:21:20.101Z,101302.11
2023-05-04T00:23:46.451Z,101303.27
2023-05-04T00:26:13.882Z,101303.52
2023-05-04T00:28:40.588Z,101305.56
2023-05-04T00:31:32.197Z,101301.39
2023-05-04T00:33:58.578Z,101301.52
2023-05-04T00:36:25.119Z,101299.07
2023-05-04T00:38:54.375Z,101304.14
2023-05-04T00:41:21.606Z,101302.12
2023-05-04T00:44:06.307Z,101303.17
2023-05-04T00:46:33.266Z,101301.67
2023-05-04T00:48:59.763Z,101303.71
2023-05-04T00:51:26.650Z,101305.35
2023-05-04T00:53:57.574Z,101299.66
2023-05-04T00:56:25.549Z,101301.70
2023-05-04T00:58:53.874Z,101301.81
2023-05-04T01:01:21.670Z,101300.49
2023-05-04T01:03:50.472Z,101301.16
2023-05-04T01:06:52.181Z,101304.73
2023-05-04T01:09:41.470Z,101299.77
2023-05-04T01:12:16.855Z,101302.23
2023-05-04T01:14:43.939Z,101303.64
2023-05-04T01:17:11.738Z,101303.90
2023-05-04T01:19:38.377Z,101298.96
2023-05-04T01:22:04.654Z,101299.45
2023-05-04T01:24:31.338Z,101298.03
2023-05-04T01:27:15.177Z,101299.01
2023-05-04T01:29:48.990Z,101296.70
2023-05-04T01:32:18.069Z,101296.77
2023-05-04T01:34:44.936Z,101300.86
2023-05-04T01:37:11.320Z,101297.71
2023-05-04T01:39:38.072Z,101296.09
2023-05-04T01:42:04.456Z,101295.26
2023-05-04T01:44:30.822Z,101295.97
2023-05-04T01:46:57.210Z,101296.89
2023-05-04T01:49:23.572Z,101302.59
2023-05-04T01:51:50.067Z,101303.16
2023-05-04T01:54:16.461Z,101305.30
2023-05-04T01:56:42.907Z,101303.67
2023-05-04T01:59:09.218Z,101299.96
2023-05-04T02:01:36.195Z,101297.20
2023-05-04T02:04:03.078Z,101293.21
2023-05-04T02:06:30.080Z,101294.56
2023-05-04T02:08:56.479Z,101291.70
2023-05-04T02:11:22.956Z,101291.23
2023-05-04T02:13:49.366Z,101292.69
2023-05-04T02:16:15.887Z,101296.73
2023-05-04T02:18:42.331Z,101296.26
2023-05-04T02:21:08.688Z,101292.40
2023-05-04T02:23:35.030Z,101294.89
2023-05-04T02:26:01.944Z,101291.55
2023-05-04T02:28:28.373Z,101291.96
2023-05-04T02:30:54.751Z,101294.20
2023-05-04T02:33:21.095Z,101295.34
2023-05-04T02:35:47.476Z,101294.83
2023-05-04T02:38:13.872Z,101298.17
2023-05-04T02:40:40.833Z,101295.10
2023-05-04T02:43:07.144Z,101297.70
2023-05-04T02:45:34.955Z,101294.90
2023-05-04T02:48:01.821Z,101295.20
2023-05-04T02:50:28.158Z,101297.96
2023-05-04T02:53:21.181Z,101294.11
2023-05-04T02:55:47.605Z,101293.86
2023-05-04T02:58:13.918Z,101292.83
2023-05-04T03:04:34.816Z,101291.44
2023-05-04T03:07:01.193Z,101287.84
2023-05-04T03:09:27.524Z,101291.55
2023-05-04T03:11:54.371Z,101289.94
2023-05-04T03:14:21.004Z,101292.91
2023-05-04T03:16:47.432Z,101293.73
2023-05-04T03:19:13.934Z,101297.73
2023-05-04T03:21:40.355Z,101300.42
2023-05-04T03:24:06.634Z,101301.28
2023-05-04T03:26:32.984Z,101304.71
2023-05-04T03:28:59.570Z,101303.48
2023-05-04T03:31:26.449Z,101305.40
2023-05-04T03:33:52.850Z,101305.70
2023-05-04T03:36:19.207Z,101304.44
2023-05-04T03:38:46.207Z,101303.52
2023-05-04T03:41:13.239Z,101301.29
2023-05-04T03:43:39.791Z,101301.98
2023-05-04T03:46:06.120Z,101300.95
2023-05-04T03:48:32.493Z,101303.11
2023-05-04T03:50:58.962Z,101304.41
2023-05-04T03:53:28.815Z,101304.45
2023-05-04T03:55:55.312Z,101300.42
2023-05-04T03:58:21.727Z,101302.19
2023-05-04T04:00:50.870Z,101306.21
2023-05-04T04:03:18.122Z,101308.29
2023-05-04T04:05:44.509Z,101313.66
2023-05-04T04:08:10.924Z,101314.83
2023-05-04T04:10:37.342Z,101316.84
2023-05-04T04:13:03.920Z,101314.45
2023-05-04T04:15:30.382Z,101313.90
2023-05-04T04:17:56.748Z,101317.77
2023-05-04T04:20:23.260Z,101318.20
2023-05-04T04:22:49.743Z,101324.08
2023-05-04T04:25:16.031Z,101328.17
2023-05-04T04:28:12.950Z,101324.73
2023-05-04T04:30:40.190Z,101330.10
2023-05-04T04:33:07.214Z,101336.02
2023-05-04T04:35:34.422Z,101331.55
2023-05-04T04:38:03.548Z,101331.34
2023-05-04T04:40:30.346Z,101336.83
2023-05-04T04:42:56.854Z,101338.82
2023-05-04T04:45:23.421Z,101339.30
2023-05-04T04:51:59.020Z,101329.13
2023-05-04T04:54:26.715Z,101332.25
2023-05-04T04:56:53.272Z,101330.67
2023-05-04T04:59:20.032Z,101332.58
2023-05-04T05:01:46.428Z,101331.41
2023-05-04T05:04:13.307Z,101329.81
2023-05-04T05:06:39.761Z,101328.27
2023-05-04T05:09:06.219Z,101328.52
2023-05-04T05:11:32.540Z,101330.59
2023-05-04T05:13:59.322Z,101331.05
2023-05-04T05:16:26.240Z,101334.69
2023-05-04T05:18:52.778Z,101330.91
2023-05-04T05:21:19.036Z,101335.36
2023-05-04T05:23:45.372Z,101337.58
2023-05-04T05:26:11.721Z,101334.52
2023-05-04T05:28:38.109Z,101338.30
2023-05-04T05:31:04.850Z,101338.77
2023-05-04T05:33:31.119Z,101345.89
2023-05-04T05:35:57.591Z,101345.40
2023-05-04T05:38:24.065Z,101346.10
2023-05-04T05:40:51.522Z,101349.67
2023-05-04T05:43:17.956Z,101348.59
2023-05-04T05:45:44.387Z,101345.66
2023-05-04T05:48:11.012Z,101345.46
2023-05-04T05:50:37.412Z,101347.89
2023-05-04T05:53:03.750Z,101348.98
2023-05-04T05:55:30.029Z,101352.32
2023-05-04T06:02:15.006Z,101351.63
2023-05-04T06:04:42.171Z,101349.70
2023-05-04T06:07:08.601Z,101348.79
2023-05-04T06:13:47.603Z,101344.58
2023-05-04T06:16:14.156Z,101342.83
2023-05-04T06:18:40.635Z,101348.06
2023-05-04T06:21:07.322Z,101348.56
2023-05-04T06:23:33.682Z,101348.28
2023-05-04T06:26:00.165Z,101347.83
2023-05-04T06:28:26.777Z,101346.94
2023-05-04T06:31:56.361Z,101346.91
2023-05-04T06:34:25.878Z,101346.07
2023-05-04T06:36:52.199Z,101347.39
2023-05-04T06:39:19.264Z,101347.84
2023-05-04T06:41:45.976Z,101347.14
2023-05-04T06:44:17.135Z,101347.24
2023-05-04T06:46:43.467Z,101349.62
2023-05-04T06:49:09.845Z,101347.55
2023-05-04T06:51:39.616Z,101346.81
2023-05-04T06:54:06.092Z,101343.70
2023-05-04T06:56:32.444Z,101346.48
2023-05-04T06:58:58.838Z,101347.14
2023-05-04T07:01:25.533Z,101347.47
2023-05-04T07:03:52.115Z,101349.50
2023-05-04T07:06:19.001Z,101346.85
2023-05-04T07:08:45.304Z,101347.91
2023-05-04T07:11:11.836Z,101350.17
2023-05-04T07:13:38.552Z,101353.79
2023-05-04T07:16:08.528Z,101350.30
2023-05-04T07:18:35.000Z,101348.17
2023-05-04T07:21:16.302Z,101351.98
2023-05-04T07:23:48.048Z,101352.27
2023-05-04T07:26:14.465Z,101348.96
2023-05-04T07:28:43.018Z,101348.83
2023-05-04T07:31:12.234Z,101350.16
2023-05-04T07:33:39.169Z,101345.97
2023-05-04T07:36:06.445Z,101348.13
2023-05-04T07:38:33.522Z,101351.77
2023-05-04T07:41:00.119Z,101355.39
2023-05-04T07:43:26.481Z,101356.25
2023-05-04T07:45:53.382Z,101354.17
2023-05-04T07:48:20.354Z,101352.50
2023-05-04T07:50:47.077Z,101349.23
2023-05-04T07:53:13.592Z,101352.69
2023-05-04T07:55:40.272Z,101345.55
2023-05-04T07:58:06.710Z,101346.71
2023-05-04T08:00:33.031Z,101341.58
2023-05-04T08:02:59.505Z,101336.91
2023-05-04T08:05:25.852Z,101345.02
2023-05-04T08:07:52.165Z,101344.30
2023-05-04T08:10:21.313Z,101345.12
2023-05-04T08:12:47.766Z,101337.42
2023-05-04T08:15:14.250Z,101334.11
2023-05-04T08:17:40.803Z,101331.09
2023-05-04T08:20:08.907Z,101336.79
2023-05-04T08:22:35.602Z,101336.04
2023-05-04T08:25:02.545Z,101334.53
2023-05-04T08:27:28.974Z,101330.77
2023-05-04T08:29:57.117Z,101331.75
2023-05-04T08:32:23.554Z,101332.08
2023-05-04T08:34:51.044Z,101329.33
2023-05-04T08:37:17.630Z,101337.93
2023-05-04T08:39:44.011Z,101335.39
2023-05-04T08:42:11.394Z,101337.08
2023-05-04T08:44:37.821Z,101340.27
2023-05-04T08:47:04.316Z,101337.77
2023-05-04T08:49:30.678Z,101337.28
2023-05-04T08:51:58.604Z,101339.23
2023-05-04T08:54:26.699Z,101340.52
2023-05-04T08:56:54.465Z,101338.64
2023-05-04T08:59:22.800Z,101345.40
2023-05-04T09:01:53.861Z,101345.00
2023-05-04T09:04:21.719Z,101343.75
2023-05-04T09:06:48.285Z,101344.36
2023-05-04T09:09:14.827Z,101345.95
2023-05-04T09:11:41.346Z,101344.02
2023-05-04T09:14:07.667Z,101349.73
2023-05-04T09:16:37.480Z,101357.33
2023-05-04T09:19:16.858Z,101358.36
2023-05-04T09:21:43.816Z,101356.75
2023-05-04T09:24:11.924Z,101353.21
2023-05-04T09:26:38.618Z,101352.48
2023-05-04T09:29:15.120Z,101346.67
2023-05-04T09:31:52.006Z,101348.23
2023-05-04T09:34:22.477Z,101340.02
2023-05-04T09:37:02.746Z,101331.45
2023-05-04T09:39:32.433Z,101325.10
2023-05-04T09:41:58.760Z,101328.52
2023-05-04T09:44:29.344Z,101327.73
2023-05-04T09:46:59.190Z,101322.80
2023-05-04T09:49:30.486Z,101328.36
2023-05-04T09:51:58.640Z,101325.91
2023-05-04T09:54:26.516Z,101322.90
2023-05-04T09:57:01.945Z,101317.23
2023-05-04T09:59:32.853Z,101316.52
2023-05-04T10:02:07.498Z,101314.00
2023-05-04T10:04:42.895Z,101310.81
2023-05-04T10:07:09.160Z,101307.27
2023-05-04T10:09:35.608Z,101309.71
2023-05-04T10:12:04.996Z,101311.35
2023-05-04T10:14:34.019Z,101307.20
2023-05-04T10:17:16.023Z,101306.95
2023-05-04T10:19:57.439Z,101298.20
2023-05-04T10:22:52.845Z,101293.39
2023-05-04T10:25:54.723Z,101294.96
2023-05-04T10:28:39.315Z,101292.79
2023-05-04T10:31:06.717Z,101292.98
2023-05-04T10:33:41.259Z,101295.67
2023-05-04T10:36:08.874Z,101295.54
2023-05-04T10:38:37.135Z,101292.48
2023-05-04T10:41:17.438Z,101295.85
2023-05-04T10:43:52.838Z,101298.27
2023-05-04T10:46:20.905Z,101299.10
2023-05-04T10:48:47.950Z,101295.23
2023-05-04T10:51:22.373Z,101290.48
2023-05-04T10:53:49.297Z,101285.15
2023-05-04T10:56:26.366Z,101281.89
2023-05-04T10:58:54.047Z,101281.60
2023-05-04T11:01:21.326Z,101283.25
2023-05-04T11:03:51.562Z,101280.33
2023-05-04T11:06:24.101Z,101279.29
2023-05-04T11:09:02.250Z,101284.85
2023-05-04T11:11:28.796Z,101278.65
2023-05-04T11:13:56.378Z,101280.63
2023-05-04T11:16:23.923Z,101283.24
2023-05-04T11:18:50.597Z,101286.13
2023-05-04T11:21:26.965Z,101284.53
2023-05-04T11:23:59.683Z,101271.02
2023-05-04T11:26:27.631Z,101267.64
2023-05-04T11:28:54.090Z,101261.22
2023-05-04T11:31:20.847Z,101251.77
2023-05-04T11:33:54.111Z,101249.98
2023-05-04T11:36:21.752Z,101248.71
2023-05-04T11:38:49.113Z,101243.23
2023-05-04T11:41:15.681Z,101239.99
2023-05-04T11:43:44.476Z,101233.82
2023-05-04T11:46:12.069Z,101233.98
2023-05-04T11:48:39.080Z,101236.77
2023-05-04T11:51:06.115Z,101235.90
2023-05-04T11:53:36.798Z,101232.29
2023-05-04T11:56:07.078Z,101229.59
2023-05-04T11:58:33.837Z,101232.73
2023-05-04T12:01:00.344Z,101238.77
2023-05-04T12:03:43.879Z,101239.55
2023-05-04T12:06:15.032Z,101235.69
2023-05-04T12:08:41.526Z,101233.45
2023-05-04T12:11:20.796Z,101231.61
2023-05-04T12:13:48.783Z,101230.04
2023-05-04T12:16:19.832Z,101228.70
2023-05-04T12:18:47.269Z,101224.34
2023-05-04T12:21:17.901Z,101221.10
2023-05-04T12:23:45.443Z,101216.21
2023-05-04T12:26:12.875Z,101213.39
2023-05-04T12:28:41.116Z,101209.11
2023-05-04T12:31:08.230Z,101209.15
2023-05-04T12:33:35.392Z,101200.89
2023-05-04T12:36:04.104Z,101192.89
2023-05-04T12:38:31.271Z,101184.67
2023-05-04T12:41:00.185Z,101185.48
2023-05-04T12:43:26.628Z,101182.52
2023-05-04T12:45:53.844Z,101179.70
2023-05-04T12:48:20.959Z,101179.95
2023-05-04T12:50:49.473Z,101178.88
2023-05-04T12:53:17.325Z,101171.61
2023-05-04T12:55:44.022Z,101168.95
2023-05-04T12:58:10.636Z,101174.83
2023-05-04T13:00:38.121Z,101171.35
2023-05-04T13:03:05.014Z,101170.24
2023-05-04T13:05:31.498Z,101170.47
2023-05-04T13:07:57.834Z,101169.06
2023-05-04T13:10:24.450Z,101167.20
2023-05-04T13:12:51.216Z,101168.73
2023-05-04T13:15:17.746Z,101171.31
2023-05-04T13:17:44.461Z,101172.64
2023-05-04T13:20:12.491Z,101172.34
2023-05-04T13:22:40.163Z,101163.54
2023-05-04T13:25:07.262Z,101157.69
2023-05-04T13:27:59.465Z,101159.37
2023-05-04T13:30:25.838Z,101152.73
2023-05-04T13:32:52.294Z,101150.33
2023-05-04T13:35:18.912Z,101140.86
2023-05-04T13:37:45.636Z,101137.31
2023-05-04T13:40:13.034Z,101137.61
2023-05-04T13:42:39.543Z,101125.05
2023-05-04T13:45:07.028Z,101113.51
2023-05-04T13:48:25.148Z,101107.67
2023-05-04T13:50:51.916Z,101104.52
2023-05-04T13:53:18.819Z,101101.56
2023-05-04T13:55:45.538Z,101100.07
2023-05-04T13:58:11.819Z,101102.10
2023-05-04T14:00:38.266Z,101106.79
2023-05-04T14:03:04.806Z,101107.90
2023-05-04T14:05:31.528Z,101101.11
2023-05-04T14:07:58.060Z,101091.79
2023-05-04T14:10:24.476Z,101092.13
2023-05-04T14:12:50.807Z,101089.72
2023-05-04T14:15:21.638Z,101085.02
2023-05-04T14:17:49.106Z,101079.23
2023-05-04T14:20:15.418Z,101068.13
2023-05-04T14:22:41.682Z,101072.02
2023-05-04T14:25:08.485Z,101073.64
2023-05-04T14:27:35.305Z,101071.35
2023-05-04T14:30:03.195Z,101069.99
2023-05-04T14:32:29.809Z,101071.52
2023-05-04T14:35:05.740Z,101066.92
2023-05-04T14:37:37.364Z,101068.58
2023-05-04T14:40:10.123Z,101066.38
2023-05-04T14:42:37.813Z,101065.59
2023-05-04T14:45:06.137Z,101070.70
2023-05-04T14:47:33.098Z,101069.75
2023-05-04T14:50:00.759Z,101068.20
2023-05-04T14:52:27.218Z,101063.58
2023-05-04T14:54:53.597Z,101061.05
2023-05-04T14:57:20.011Z,101057.71
2023-05-04T14:59:47.186Z,101060.61
2023-05-04T15:02:13.740Z,101062.61
2023-05-04T15:04:40.148Z,101066.60
2023-05-04T15:07:07.498Z,101065.47
2023-05-04T15:09:37.101Z,101056.81
2023-05-04T15:12:04.103Z,101064.72
2023-05-04T15:14:30.415Z,101065.11
2023-05-04T15:16:56.894Z,101062.53
2023-05-04T15:19:23.324Z,101059.42
2023-05-04T15:21:49.901Z,101058.02
2023-05-04T15:24:16.606Z,101056.77
2023-05-04T15:26:43.154Z,101058.34
2023-05-04T15:29:09.498Z,101058.17
2023-05-04T15:31:35.969Z,101054.58
2023-05-04T15:34:02.580Z,101051.17
2023-05-04T15:36:31.038Z,101050.48
2023-05-04T15:38:57.656Z,101049.70
2023-05-04T15:41:24.105Z,101047.95
2023-05-04T15:43:50.436Z,101045.16
2023-05-04T15:46:16.938Z,101039.80
2023-05-04T15:48:43.529Z,101042.00
2023-05-04T15:51:11.366Z,101040.05
2023-05-04T15:54:34.866Z,101040.89
2023-05-04T15:57:02.956Z,101039.30
2023-05-04T15:59:29.463Z,101037.77
2023-05-04T16:01:55.855Z,101029.46
2023-05-04T16:04:22.282Z,101020.61
2023-05-04T16:06:48.653Z,101021.88
2023-05-04T16:09:16.534Z,101019.99
2023-05-04T16:11:46.297Z,101021.83
2023-05-04T16:14:13.521Z,101014.48
2023-05-04T16:16:40.795Z,101008.74
2023-05-04T16:19:08.848Z,100999.91
2023-05-04T16:21:36.810Z,100995.86
2023-05-04T16:24:04.004Z,100994.91
2023-05-04T16:26:30.363Z,100991.71
2023-05-04T16:28:56.799Z,100987.66
2023-05-04T16:31:23.136Z,100986.41
2023-05-04T16:33:49.565Z,100987.05
2023-05-04T16:36:15.919Z,100978.70
2023-05-04T16:38:42.319Z,100973.95
2023-05-04T16:41:08.623Z,100977.26
2023-05-04T16:43:35.069Z,100977.88
2023-05-04T16:46:01.966Z,100975.58
2023-05-04T16:48:28.423Z,100976.62
2023-05-04T16:50:54.797Z,100974.48
2023-05-04T16:53:21.199Z,100969.69
2023-05-04T16:55:47.628Z,100969.34
2023-05-04T16:58:13.950Z,100967.98
2023-05-04T17:00:41.802Z,100966.13
2023-05-04T17:03:08.261Z,100964.20
2023-05-04T17:05:35.022Z,100961.37
2023-05-04T17:08:01.486Z,100965.56
2023-05-04T17:10:27.713Z,100963.64
2023-05-04T17:12:54.855Z,100961.40
2023-05-04T17:15:26.130Z,100959.21
2023-05-04T17:17:54.879Z,100963.61
2023-05-04T17:20:23.351Z,100961.13
2023-05-04T17:22:51.182Z,100958.45
2023-05-04T17:25:17.639Z,100958.55
2023-05-04T17:28:09.904Z,100962.11
2023-05-04T17:30:36.682Z,100966.76
2023-05-04T17:33:03.320Z,100961.55
2023-05-04T17:35:29.693Z,100962.11
2023-05-04T17:37:58.355Z,100960.57
2023-05-04T17:40:28.416Z,100960.23
2023-05-04T17:42:55.279Z,100959.41
2023-05-04T17:45:32.368Z,100961.40
2023-05-04T17:47:59.029Z,100957.29
2023-05-04T17:50:25.630Z,100955.30
2023-05-04T17:52:53.428Z,100961.98
2023-05-04T17:55:19.912Z,100966.14
2023-05-04T18:01:59.859Z,100970.09
2023-05-04T18:04:26.361Z,100971.45
2023-05-04T18:06:52.684Z,100972.68
2023-05-04T18:09:19.239Z,100972.82
2023-05-04T18:11:46.496Z,100975.21
2023-05-04T18:14:12.874Z,100978.55
2023-05-04T18:16:39.451Z,100983.58
2023-05-04T18:19:06.103Z,100985.80
2023-05-04T18:21:36.465Z,100988.34
2023-05-04T18:24:03.851Z,100986.96
2023-05-04T18:26:30.264Z,100992.34
2023-05-04T18:29:04.225Z,100998.86
2023-05-04T18:31:38.312Z,101005.55
2023-05-04T18:34:05.274Z,101004.22
2023-05-04T18:36:31.962Z,101006.22
2023-05-04T18:38:59.981Z,101008.94
2023-05-04T18:41:27.158Z,101011.21
2023-05-04T18:43:55.406Z,101012.70
2023-05-04T18:46:22.670Z,101013.15
2023-05-04T18:48:49.558Z,101017.81
2023-05-04T18:51:15.825Z,101021.27
2023-05-04T18:53:42.182Z,101026.41
2023-05-04T18:56:10.068Z,101030.18
2023-05-04T18:58:37.642Z,101031.46
2023-05-04T19:01:05.354Z,101030.38
2023-05-04T19:03:32.175Z,101028.48
2023-05-04T19:05:58.782Z,101025.14
2023-05-04T19:08:25.322Z,101020.23
2023-05-04T19:10:52.205Z,101021.44
2023-05-04T19:13:20.411Z,101023.64
2023-05-04T19:15:46.766Z,101025.52
2023-05-04T19:18:13.024Z,101024.16
2023-05-04T19:20:39.643Z,101027.33
2023-05-04T19:23:06.499Z,101026.08
2023-05-04T19:25:35.247Z,101026.35
2023-05-04T19:28:09.202Z,101024.41
2023-05-04T19:30:39.384Z,101024.88
2023-05-04T19:33:07.523Z,101025.78
2023-05-04T19:35:33.883Z,101028.12
2023-05-04T19:38:00.923Z,101029.55
2023-05-04T19:40:27.263Z,101032.77
2023-05-04T19:42:53.545Z,101032.36
2023-05-04T19:45:20.037Z,101031.35
2023-05-04T19:47:47.711Z,101036.17
2023-05-04T19:50:15.755Z,101035.69
2023-05-04T19:52:42.159Z,101035.80
2023-05-04T19:55:08.722Z,101031.44
2023-05-04T19:57:35.586Z,101030.15
2023-05-04T20:00:03.029Z,101030.15
2023-05-04T20:02:29.596Z,101027.00
2023-05-04T20:04:56.086Z,101027.61
2023-05-04T20:07:22.478Z,101028.81
2023-05-04T20:10:16.661Z,101026.73
2023-05-04T20:12:42.930Z,101023.17
2023-05-04T20:15:09.948Z,101022.17
2023-05-04T20:17:36.352Z,101018.20
2023-05-04T20:20:03.154Z,101017.14
2023-05-04T20:22:29.498Z,101020.02
2023-05-04T20:24:56.371Z,101024.04
2023-05-04T20:27:22.755Z,101019.80
2023-05-04T20:29:49.229Z,101018.48
2023-05-04T20:32:15.837Z,101019.97
2023-05-04T20:34:42.987Z,101016.53
2023-05-04T20:37:09.413Z,101020.39
2023-05-04T20:39:38.179Z,101022.61
2023-05-04T20:42:07.466Z,101020.30
2023-05-04T20:44:33.803Z,101021.11
2023-05-04T20:47:00.207Z,101023.49
2023-05-04T20:49:26.498Z,101023.40
2023-05-04T20:51:52.843Z,101022.70
2023-05-04T20:54:19.686Z,101019.86
2023-05-04T20:56:45.946Z,101018.76
2023-05-04T20:59:12.160Z,101018.14
2023-05-04T21:01:38.546Z,101016.02
2023-05-04T21:04:05.065Z,101016.51
2023-05-04T21:06:31.339Z,101017.45
2023-05-04T21:08:57.648Z,101021.20
2023-05-04T21:11:23.993Z,101020.55
2023-05-04T21:13:50.553Z,101016.73
2023-05-04T21:16:19.404Z,101020.06
2023-05-04T21:18:45.716Z,101014.97
2023-05-04T21:21:12.058Z,101011.84
2023-05-04T21:23:38.744Z,101013.28
2023-05-04T21:26:05.020Z,101014.89
2023-05-04T21:28:31.425Z,101012.84
2023-05-04T21:30:58.397Z,101015.69
2023-05-04T21:33:28.327Z,101012.52
2023-05-04T21:35:54.714Z,101008.93
2023-05-04T21:38:22.260Z,101009.02
2023-05-04T21:40:48.934Z,101009.06
2023-05-04T21:43:15.506Z,101008.15
2023-05-04T21:45:41.785Z,101009.34
2023-05-04T21:48:08.069Z,101004.30
2023-05-04T21:50:34.409Z,101001.77
2023-05-04T21:53:00.789Z,101001.20
2023-05-04T21:55:28.239Z,100998.27
2023-05-04T21:57:55.642Z,101002.69
2023-05-04T22:01:17.041Z,101000.61
2023-05-04T22:03:43.941Z,100996.69
2023-05-04T22:06:10.323Z,100994.42
2023-05-04T22:08:37.248Z,100995.60
2023-05-04T22:11:03.554Z,100995.48
2023-05-04T22:13:30.001Z,100996.04
2023-05-04T22:15:56.383Z,100997.55
2023-05-04T22:18:23.222Z,100997.72
2023-05-04T22:20:50.186Z,100998.85
2023-05-04T22:23:16.500Z,101000.50
2023-05-04T22:25:42.923Z,101004.09
2023-05-04T22:28:09.326Z,100998.88
2023-05-04T22:30:35.809Z,101000.73
2023-05-04T22:33:03.485Z,100996.99
2023-05-04T22:35:30.976Z,100993.12
2023-05-04T22:37:58.324Z,100990.48
2023-05-04T22:40:24.995Z,100987.12
2023-05-04T22:47:16.695Z,100985.35
2023-05-04T22:49:43.590Z,100982.23
2023-05-04T22:52:14.960Z,100980.48
2023-05-04T22:54:41.598Z,100978.23
2023-05-04T22:57:08.147Z,100981.27
2023-05-04T22:59:34.472Z,100981.73
2023-05-04T23:02:01.324Z,100978.70
2023-05-04T23:04:27.740Z,100974.03
2023-05-04T23:06:54.125Z,100975.79
2023-05-04T23:09:20.482Z,100980.39
2023-05-04T23:11:46.961Z,100981.79
2023-05-04T23:14:13.448Z,100980.70
2023-05-04T23:16:39.864Z,100977.46
2023-05-04T23:19:06.457Z,100981.95
2023-05-04T23:25:46.649Z,100976.38
2023-05-04T23:28:13.007Z,100976.55
2023-05-04T23:30:39.392Z,100972.14
2023-05-04T23:37:32.858Z,100978.55
2023-05-04T23:39:59.721Z,100975.81
2023-05-04T23:42:26.141Z,100971.65
2023-05-04T23:44:55.743Z,100970.75
2023-05-04T23:47:22.545Z,100970.47
2023-05-04T23:54:02.770Z,100971.55
2023-05-04T23:56:30.473Z,100965.84
2023-05-04T23:58:56.892Z,100966.95
